Time;durP1;ratioP1;P1;durP2;ratioP2;P2;SDS_P1;SDS_P2;PMS_P1;PMS_P2;Temp;Humidity;BMP_temperature;BMP_pressure;BME280_temperature;BME280_humidity;BME280_pressure;Samples;Min_cycle;Max_cycle;Signal;HPM_P1;HPM_P2
2023/10/26 00:00:19;;;;;;;20.30;19.10;;;;;;;;;;5066189;28;20036;-65
2023/10/26 00:02:44;;;;;;;19.83;18.73;;;;;;;;;;5062501;28;20156;-65
2023/10/26 00:05:10;;;;;;;20.15;19.05;;;;;;;;;;5063831;28;20028;-64
2023/10/26 00:07:35;;;;;;;21.98;20.80;;;;;;;;;;5062096;28;20032;-65
2023/10/26 00:10:00;;;;;;;21.15;20.05;;;;;;;;;;5065779;28;20449;-66
2023/10/26 00:12:26;;;;;;;21.63;20.45;;;;;;;;;;5066045;28;20027;-65
2023/10/26 00:14:52;;;;;;;21.27;20.15;;;;;;;;;;5066072;28;20697;-65
2023/10/26 00:17:17;;;;;;;20.58;19.48;;;;;;;;;;5064527;28;20453;-65
2023/10/26 00:19:43;;;;;;;21.60;20.40;;;;;;;;;;5064778;28;20048;-65
2023/10/26 00:22:08;;;;;;;21.15;20.00;;;;;;;;;;5062761;28;20056;-65
2023/10/26 00:24:33;;;;;;;21.83;20.55;;;;;;;;;;5061528;28;20489;-66
2023/10/26 00:26:59;;;;;;;20.13;19.02;;;;;;;;;;5068189;28;20385;-66
2023/10/26 00:29:24;;;;;;;20.48;19.38;;;;;;;;;;5062796;28;20036;-66
2023/10/26 00:31:50;;;;;;;20.48;19.30;;;;;;;;;;5067107;28;20647;-66
2023/10/26 00:34:15;;;;;;;19.58;18.48;;;;;;;;;;5061545;28;20035;-65
2023/10/26 00:36:40;;;;;;;19.30;18.23;;;;;;;;;;5071480;28;20123;-66
2023/10/26 00:39:06;;;;;;;19.13;18.08;;;;;;;;;;5062091;28;20036;-65
2023/10/26 00:41:31;;;;;;;19.13;18.10;;;;;;;;;;5064897;28;20128;-65
2023/10/26 00:43:56;;;;;;;19.95;18.85;;;;;;;;;;5063569;28;20689;-66
2023/10/26 00:46:22;;;;;;;18.88;17.88;;;;;;;;;;5063126;28;20135;-65
2023/10/26 00:48:47;;;;;;;19.80;18.70;;;;;;;;;;5062650;28;20067;-64
2023/10/26 00:51:13;;;;;;;18.92;17.90;;;;;;;;;;5064570;28;20083;-66
2023/10/26 00:53:40;;;;;;;19.95;18.75;;;;;;;;;;5065569;28;20881;-66
2023/10/26 00:56:06;;;;;;;19.20;18.15;;;;;;;;;;5062644;28;20848;-66
2023/10/26 00:58:33;;;;;;;20.52;19.42;;;;;;;;;;5064645;28;20036;-66
2023/10/26 01:00:58;;;;;;;19.88;18.77;;;;;;;;;;5062531;28;20051;-65
2023/10/26 01:03:29;;;;;;;19.83;18.73;;;;;;;;;;5065894;28;20028;-66
2023/10/26 01:05:54;;;;;;;19.77;18.67;;;;;;;;;;5061168;28;20043;-66
2023/10/26 01:08:20;;;;;;;19.17;18.13;;;;;;;;;;5062030;28;20024;-66
2023/10/26 01:10:46;;;;;;;18.65;17.65;;;;;;;;;;5060476;28;20351;-66
2023/10/26 01:13:12;;;;;;;19.15;18.13;;;;;;;;;;5062511;28;20693;-66
2023/10/26 01:15:38;;;;;;;19.50;18.45;;;;;;;;;;5063909;28;20047;-65
2023/10/26 01:18:03;;;;;;;20.00;18.90;;;;;;;;;;5063928;28;20032;-65
2023/10/26 01:20:29;;;;;;;20.40;19.27;;;;;;;;;;5061939;28;20067;-65
2023/10/26 01:22:54;;;;;;;19.92;18.83;;;;;;;;;;5066434;28;20099;-65
2023/10/26 01:25:19;;;;;;;19.15;18.13;;;;;;;;;;5050291;28;20051;-65
2023/10/26 01:27:45;;;;;;;19.67;18.58;;;;;;;;;;5059913;28;20047;-65
2023/10/26 01:30:12;;;;;;;20.23;19.13;;;;;;;;;;5065857;28;20032;-65
2023/10/26 01:32:38;;;;;;;19.23;18.15;;;;;;;;;;5064137;28;20040;-66
2023/10/26 01:35:04;;;;;;;19.67;18.58;;;;;;;;;;5063370;28;20040;-65
2023/10/26 01:37:29;;;;;;;20.77;19.67;;;;;;;;;;5060581;28;20128;-66
2023/10/26 01:39:54;;;;;;;20.73;19.63;;;;;;;;;;5067096;28;20114;-65
2023/10/26 01:42:20;;;;;;;19.75;18.65;;;;;;;;;;5061020;28;20037;-65
2023/10/26 01:44:45;;;;;;;20.73;19.63;;;;;;;;;;5063875;28;20032;-66
2023/10/26 01:47:12;;;;;;;20.38;19.27;;;;;;;;;;5061235;28;20052;-65
2023/10/26 01:49:38;;;;;;;20.52;19.42;;;;;;;;;;5060692;28;20098;-66
2023/10/26 01:52:03;;;;;;;20.48;19.38;;;;;;;;;;5064704;28;20380;-66
2023/10/26 01:54:29;;;;;;;20.85;19.70;;;;;;;;;;5062895;28;20123;-65
2023/10/26 01:56:54;;;;;;;19.85;18.75;;;;;;;;;;5061421;28;20043;-65
2023/10/26 01:59:20;;;;;;;21.48;20.33;;;;;;;;;;5062631;28;20032;-65
2023/10/26 02:01:45;;;;;;;21.77;20.60;;;;;;;;;;5059814;28;20094;-66
2023/10/26 02:04:10;;;;;;;21.80;20.60;;;;;;;;;;5060492;28;20669;-66
2023/10/26 02:06:36;;;;;;;21.85;20.65;;;;;;;;;;5065604;28;20061;-66
2023/10/26 02:09:02;;;;;;;20.13;19.02;;;;;;;;;;5058363;28;20024;-65
2023/10/26 02:11:27;;;;;;;22.92;21.73;;;;;;;;;;5067991;28;20036;-65
2023/10/26 02:13:53;;;;;;;22.50;21.30;;;;;;;;;;5061994;28;20131;-66
2023/10/26 02:16:20;;;;;;;21.80;20.60;;;;;;;;;;5077731;28;20097;-67
2023/10/26 02:18:46;;;;;;;21.40;20.25;;;;;;;;;;5060154;28;20028;-66
2023/10/26 02:21:11;;;;;;;22.38;21.17;;;;;;;;;;5059910;28;20040;-66
2023/10/26 02:23:39;;;;;;;21.77;20.58;;;;;;;;;;5061581;28;20128;-66
2023/10/26 02:26:04;;;;;;;22.35;21.15;;;;;;;;;;5060337;28;20059;-65
2023/10/26 02:28:29;;;;;;;22.85;21.58;;;;;;;;;;5063549;28;20461;-66
2023/10/26 02:30:55;;;;;;;23.45;22.20;;;;;;;;;;5061690;28;20361;-66
2023/10/26 02:33:20;;;;;;;22.83;21.52;;;;;;;;;;5061142;28;20036;-66
2023/10/26 02:35:45;;;;;;;24.42;23.10;;;;;;;;;;5063339;28;20122;-66
2023/10/26 02:38:11;;;;;;;23.27;22.05;;;;;;;;;;5062442;28;20037;-64
2023/10/26 02:40:37;;;;;;;23.70;22.45;;;;;;;;;;5063998;28;20043;-66
2023/10/26 02:43:03;;;;;;;24.73;23.42;;;;;;;;;;5062335;28;20036;-66
2023/10/26 02:45:30;;;;;;;24.13;22.63;;;;;;;;;;5061851;28;20028;-65
2023/10/26 02:47:55;;;;;;;26.60;25.15;;;;;;;;;;5060969;28;20036;-66
2023/10/26 02:50:21;;;;;;;25.48;24.13;;;;;;;;;;5062093;28;20028;-66
2023/10/26 02:52:46;;;;;;;24.80;23.50;;;;;;;;;;5064237;28;20058;-66
2023/10/26 02:55:11;;;;;;;24.70;23.40;;;;;;;;;;5061213;28;20043;-66
2023/10/26 02:57:37;;;;;;;27.10;25.70;;;;;;;;;;5062443;28;20021;-66
2023/10/26 03:00:04;;;;;;;27.08;25.58;;;;;;;;;;5063121;28;20108;-66
2023/10/26 03:02:30;;;;;;;26.67;25.27;;;;;;;;;;5059080;28;20513;-66
2023/10/26 03:04:55;;;;;;;30.70;29.05;;;;;;;;;;5061937;28;20033;-66
2023/10/26 03:07:23;;;;;;;27.60;26.10;;;;;;;;;;5059072;28;20232;-66
2023/10/26 03:09:49;;;;;;;26.90;25.50;;;;;;;;;;5060295;28;20051;-66
2023/10/26 03:12:15;;;;;;;26.40;25.00;;;;;;;;;;5059805;28;20032;-66
2023/10/26 03:14:40;;;;;;;26.60;25.20;;;;;;;;;;5061165;28;20054;-66
2023/10/26 03:17:06;;;;;;;27.95;26.45;;;;;;;;;;5059998;28;20028;-67
2023/10/26 03:19:32;;;;;;;27.35;25.88;;;;;;;;;;5063229;28;20024;-66
2023/10/26 03:21:58;;;;;;;29.73;28.17;;;;;;;;;;5059146;28;20029;-66
2023/10/26 03:24:23;;;;;;;27.10;25.60;;;;;;;;;;5056607;28;20043;-66
2023/10/26 03:26:48;;;;;;;29.17;27.67;;;;;;;;;;5065850;28;20040;-66
2023/10/26 03:29:14;;;;;;;27.92;26.45;;;;;;;;;;5059885;28;20351;-66
2023/10/26 03:31:41;;;;;;;30.23;28.63;;;;;;;;;;5057309;28;20029;-66
2023/10/26 03:34:07;;;;;;;32.88;31.17;;;;;;;;;;5059358;28;20112;-66
2023/10/26 03:36:32;;;;;;;34.97;33.17;;;;;;;;;;5062874;28;20123;-66
2023/10/26 03:38:57;;;;;;;34.35;32.60;;;;;;;;;;5058636;28;20039;-66
2023/10/26 03:41:23;;;;;;;33.83;32.05;;;;;;;;;;5061140;28;20084;-66
2023/10/26 03:43:49;;;;;;;34.22;32.45;;;;;;;;;;5060759;28;20039;-66
2023/10/26 03:46:14;;;;;;;31.67;30.05;;;;;;;;;;5057819;28;20032;-66
2023/10/26 03:48:40;;;;;;;34.65;32.85;;;;;;;;;;5061632;28;20048;-66
2023/10/26 03:51:05;;;;;;;33.40;31.65;;;;;;;;;;5062062;28;20056;-67
2023/10/26 03:53:31;;;;;;;31.55;29.88;;;;;;;;;;5063129;28;20086;-66
2023/10/26 03:55:57;;;;;;;30.08;28.48;;;;;;;;;;5062216;28;20040;-66
2023/10/26 03:58:22;;;;;;;29.35;27.83;;;;;;;;;;5064496;28;20035;-66
2023/10/26 04:00:48;;;;;;;31.73;30.02;;;;;;;;;;5062771;28;20039;-66
2023/10/26 04:03:14;;;;;;;28.70;27.20;;;;;;;;;;5062992;28;20120;-66
2023/10/26 04:05:39;;;;;;;27.35;25.88;;;;;;;;;;5063522;28;20044;-66
2023/10/26 04:08:05;;;;;;;25.23;23.92;;;;;;;;;;5059832;28;20029;-66
2023/10/26 04:10:31;;;;;;;24.30;23.00;;;;;;;;;;5062142;28;20059;-66
2023/10/26 04:12:56;;;;;;;24.65;23.35;;;;;;;;;;5064879;28;20338;-66
2023/10/26 04:15:22;;;;;;;24.13;22.83;;;;;;;;;;5063940;28;20077;-66
2023/10/26 04:17:47;;;;;;;25.52;24.13;;;;;;;;;;5063093;28;20050;-65
2023/10/26 04:20:13;;;;;;;25.20;23.80;;;;;;;;;;5064532;28;20112;-66
2023/10/26 04:22:38;;;;;;;24.42;23.13;;;;;;;;;;5061841;28;20028;-66
2023/10/26 04:25:04;;;;;;;24.88;23.58;;;;;;;;;;5062836;28;20051;-66
2023/10/26 04:27:33;;;;;;;22.80;21.60;;;;;;;;;;5060709;28;20036;-66
2023/10/26 04:29:58;;;;;;;21.73;20.52;;;;;;;;;;5062984;28;20047;-66
2023/10/26 04:32:24;;;;;;;22.23;21.02;;;;;;;;;;5062437;28;20860;-66
2023/10/26 04:34:49;;;;;;;22.75;21.55;;;;;;;;;;5062894;28;20436;-66
2023/10/26 04:37:15;;;;;;;21.33;20.15;;;;;;;;;;5061536;28;20048;-66
2023/10/26 04:39:43;;;;;;;22.63;21.42;;;;;;;;;;5061618;28;20585;-66
2023/10/26 04:42:09;;;;;;;21.05;19.95;;;;;;;;;;5062205;28;20689;-66
2023/10/26 04:44:35;;;;;;;22.08;20.88;;;;;;;;;;5063275;28;20047;-66
2023/10/26 04:47:01;;;;;;;22.13;20.83;;;;;;;;;;5063318;28;20032;-66
2023/10/26 04:49:26;;;;;;;21.60;20.40;;;;;;;;;;5066025;28;20040;-67
2023/10/26 04:51:52;;;;;;;22.17;20.98;;;;;;;;;;5067603;28;20347;-66
2023/10/26 04:54:17;;;;;;;22.42;21.23;;;;;;;;;;5059464;28;20098;-67
2023/10/26 04:56:42;;;;;;;20.98;19.88;;;;;;;;;;5060520;28;20032;-67
2023/10/26 04:59:08;;;;;;;21.90;20.70;;;;;;;;;;5061056;28;20032;-68
2023/10/26 05:01:33;;;;;;;21.17;20.05;;;;;;;;;;5063956;28;20047;-66
2023/10/26 05:03:58;;;;;;;23.23;22.02;;;;;;;;;;5063373;28;20046;-68
2023/10/26 05:06:24;;;;;;;21.00;19.80;;;;;;;;;;5064409;28;20040;-67
2023/10/26 05:08:50;;;;;;;22.25;21.05;;;;;;;;;;5064444;28;20043;-67
2023/10/26 05:11:16;;;;;;;20.95;19.85;;;;;;;;;;5062389;28;20033;-67
2023/10/26 05:13:41;;;;;;;20.77;19.67;;;;;;;;;;5064749;28;20028;-66
2023/10/26 05:16:07;;;;;;;22.25;21.05;;;;;;;;;;5062649;28;20040;-66
2023/10/26 05:18:32;;;;;;;21.73;20.52;;;;;;;;;;5060266;28;20182;-66
2023/10/26 05:20:59;;;;;;;22.23;21.02;;;;;;;;;;5064147;28;20471;-66
2023/10/26 05:23:25;;;;;;;21.80;20.60;;;;;;;;;;5062595;28;20033;-67
2023/10/26 05:25:50;;;;;;;20.75;19.65;;;;;;;;;;5057184;28;20532;-66
2023/10/26 05:28:16;;;;;;;22.05;20.85;;;;;;;;;;5067274;28;20036;-65
2023/10/26 05:30:41;;;;;;;20.77;19.67;;;;;;;;;;5061825;28;20117;-66
2023/10/26 05:33:07;;;;;;;20.42;19.33;;;;;;;;;;5064016;28;20032;-66
2023/10/26 05:35:33;;;;;;;20.40;19.10;;;;;;;;;;5064334;28;20559;-68
2023/10/26 05:37:58;;;;;;;23.00;21.80;;;;;;;;;;5063581;28;20029;-67
2023/10/26 05:40:24;;;;;;;22.95;21.75;;;;;;;;;;5061959;28;20521;-65
2023/10/26 05:42:49;;;;;;;22.38;21.17;;;;;;;;;;5061048;28;20033;-67
2023/10/26 05:45:15;;;;;;;21.67;20.48;;;;;;;;;;5061458;28;20044;-66
2023/10/26 05:47:40;;;;;;;21.58;20.38;;;;;;;;;;5063114;28;20028;-66
2023/10/26 05:50:07;;;;;;;20.95;19.83;;;;;;;;;;5064333;28;20127;-66
2023/10/26 05:52:32;;;;;;;21.55;20.35;;;;;;;;;;5063502;28;20059;-67
2023/10/26 05:54:58;;;;;;;23.10;21.80;;;;;;;;;;5062168;28;20071;-66
2023/10/26 05:57:25;;;;;;;22.90;21.70;;;;;;;;;;5062193;28;20059;-66
2023/10/26 05:59:51;;;;;;;21.55;20.35;;;;;;;;;;5065193;28;20024;-66
2023/10/26 06:02:16;;;;;;;21.92;20.73;;;;;;;;;;5061396;28;20036;-66
2023/10/26 06:04:42;;;;;;;22.92;21.63;;;;;;;;;;5067254;28;20078;-65
2023/10/26 06:07:07;;;;;;;22.42;21.23;;;;;;;;;;5060801;28;20040;-66
2023/10/26 06:09:32;;;;;;;23.67;22.40;;;;;;;;;;5062640;28;20446;-67
2023/10/26 06:11:58;;;;;;;21.92;20.73;;;;;;;;;;5062887;28;20120;-66
2023/10/26 06:14:23;;;;;;;23.65;22.40;;;;;;;;;;5059946;28;20450;-66
2023/10/26 06:16:49;;;;;;;21.65;20.45;;;;;;;;;;5058084;28;20040;-68
2023/10/26 06:19:14;;;;;;;22.73;21.52;;;;;;;;;;5064158;28;20036;-68
2023/10/26 06:21:39;;;;;;;21.60;20.40;;;;;;;;;;5062768;28;20112;-68
2023/10/26 06:24:06;;;;;;;21.75;20.55;;;;;;;;;;5061697;28;20117;-69
2023/10/26 06:26:32;;;;;;;21.27;20.08;;;;;;;;;;5062180;28;20263;-69
2023/10/26 06:28:57;;;;;;;21.33;20.20;;;;;;;;;;5059241;28;20025;-70
2023/10/26 06:31:23;;;;;;;24.40;23.10;;;;;;;;;;5059767;28;20021;-68
2023/10/26 06:33:48;;;;;;;22.58;21.38;;;;;;;;;;5062535;28;20032;-69
2023/10/26 06:36:13;;;;;;;22.52;21.27;;;;;;;;;;5059638;28;20141;-68
2023/10/26 06:38:40;;;;;;;22.60;21.40;;;;;;;;;;5061344;28;20046;-67
2023/10/26 06:41:06;;;;;;;22.58;21.35;;;;;;;;;;5059130;28;20037;-68
2023/10/26 06:43:32;;;;;;;23.70;22.40;;;;;;;;;;5062226;28;20040;-68
2023/10/26 06:45:59;;;;;;;22.00;20.80;;;;;;;;;;5059355;28;20032;-68
2023/10/26 06:48:24;;;;;;;23.38;22.08;;;;;;;;;;5061173;28;20041;-68
2023/10/26 06:50:56;;;;;;;23.23;21.95;;;;;;;;;;5062035;28;20127;-68
2023/10/26 06:53:24;;;;;;;21.70;20.50;;;;;;;;;;5057191;28;20075;-69
2023/10/26 06:55:52;;;;;;;23.42;22.20;;;;;;;;;;5061122;28;20044;-68
2023/10/26 06:58:17;;;;;;;22.90;21.70;;;;;;;;;;5066805;28;20043;-68
2023/10/26 07:00:42;;;;;;;24.58;23.27;;;;;;;;;;5063344;28;20036;-68
2023/10/26 07:03:08;;;;;;;25.38;23.20;;;;;;;;;;5063290;28;20024;-68
2023/10/26 07:05:33;;;;;;;24.55;23.25;;;;;;;;;;5061854;28;20033;-68
2023/10/26 07:07:59;;;;;;;22.80;21.60;;;;;;;;;;5062394;28;20566;-68
2023/10/26 07:10:26;;;;;;;24.70;23.40;;;;;;;;;;5060845;28;20037;-68
2023/10/26 07:12:51;;;;;;;26.13;24.13;;;;;;;;;;5066371;28;20020;-68
2023/10/26 07:15:16;;;;;;;24.58;23.20;;;;;;;;;;5063840;28;20101;-68
2023/10/26 07:17:42;;;;;;;24.63;23.33;;;;;;;;;;5046449;28;20036;-68
2023/10/26 07:20:08;;;;;;;25.40;24.08;;;;;;;;;;5062158;28;20902;-68
2023/10/26 07:22:33;;;;;;;25.13;23.80;;;;;;;;;;5058577;28;20036;-66
2023/10/26 07:24:59;;;;;;;25.48;24.10;;;;;;;;;;5062120;28;20028;-66
2023/10/26 07:27:24;;;;;;;26.38;24.98;;;;;;;;;;5061451;28;20094;-67
2023/10/26 07:29:49;;;;;;;27.60;26.10;;;;;;;;;;5063314;28;20151;-66
2023/10/26 07:32:15;;;;;;;25.83;24.45;;;;;;;;;;5061625;28;20055;-68
2023/10/26 07:34:40;;;;;;;25.95;24.55;;;;;;;;;;5070329;28;20070;-68
2023/10/26 07:37:06;;;;;;;28.45;26.95;;;;;;;;;;5062187;28;20099;-66
2023/10/26 07:39:35;;;;;;;28.30;26.80;;;;;;;;;;5069030;28;20025;-66
2023/10/26 07:42:01;;;;;;;33.60;31.88;;;;;;;;;;5066017;28;20044;-66
2023/10/26 07:44:26;;;;;;;36.78;34.88;;;;;;;;;;5064275;28;20047;-66
2023/10/26 07:46:53;;;;;;;37.58;35.65;;;;;;;;;;5066319;28;20505;-68
2023/10/26 07:49:18;;;;;;;37.03;35.13;;;;;;;;;;5067467;28;20142;-68
2023/10/26 07:51:43;;;;;;;37.40;35.45;;;;;;;;;;5067675;28;20041;-68
2023/10/26 07:54:09;;;;;;;38.20;36.22;;;;;;;;;;5065858;28;20028;-68
2023/10/26 07:56:36;;;;;;;37.40;35.50;;;;;;;;;;5068865;28;20162;-68
2023/10/26 07:59:01;;;;;;;37.55;35.58;;;;;;;;;;5070641;28;20027;-68
2023/10/26 08:01:27;;;;;;;34.88;33.08;;;;;;;;;;5067844;28;20199;-69
2023/10/26 08:03:52;;;;;;;40.47;38.42;;;;;;;;;;5066539;28;20032;-68
2023/10/26 08:06:17;;;;;;;44.33;40.72;;;;;;;;;;5064505;28;20028;-67
2023/10/26 08:08:43;;;;;;;37.55;35.63;;;;;;;;;;5064417;28;20086;-67
2023/10/26 08:11:10;;;;;;;42.03;39.90;;;;;;;;;;5065856;28;20036;-68
2023/10/26 08:13:36;;;;;;;43.15;40.95;;;;;;;;;;5064603;28;20040;-68
2023/10/26 08:16:01;;;;;;;48.95;46.45;;;;;;;;;;5048664;28;20024;-68
2023/10/26 08:18:27;;;;;;;52.55;49.85;;;;;;;;;;5065899;28;20058;-68
2023/10/26 08:20:52;;;;;;;54.15;51.40;;;;;;;;;;5066600;28;20119;-66
2023/10/26 08:23:18;;;;;;;60.13;57.08;;;;;;;;;;5064017;28;20028;-66
2023/10/26 08:25:43;;;;;;;60.40;57.33;;;;;;;;;;5067585;28;20399;-67
2023/10/26 08:28:09;;;;;;;56.47;53.63;;;;;;;;;;5067173;28;20032;-67
2023/10/26 08:30:34;;;;;;;69.03;65.57;;;;;;;;;;5067080;28;20040;-66
2023/10/26 08:33:04;;;;;;;63.67;60.38;;;;;;;;;;5065283;28;20119;-66
2023/10/26 08:35:32;;;;;;;59.90;56.90;;;;;;;;;;5064857;28;20454;-67
2023/10/26 08:37:57;;;;;;;61.70;58.53;;;;;;;;;;5063362;28;20723;-66
2023/10/26 08:40:23;;;;;;;68.65;65.20;;;;;;;;;;5068507;28;20024;-67
2023/10/26 08:42:48;;;;;;;70.03;66.55;;;;;;;;;;5064902;28;20466;-66
2023/10/26 08:45:27;;;;;;;73.88;70.18;;;;;;;;;;5066716;28;20043;-66
2023/10/26 08:47:54;;;;;;;65.82;62.53;;;;;;;;;;5064069;28;20473;-68
2023/10/26 08:50:21;;;;;;;68.25;64.85;;;;;;;;;;5065405;28;20040;-67
2023/10/26 08:52:47;;;;;;;68.55;65.13;;;;;;;;;;5064808;28;20040;-67
2023/10/26 08:55:13;;;;;;;68.47;65.05;;;;;;;;;;5065785;28;20036;-67
2023/10/26 08:57:50;;;;;;;72.78;69.13;;;;;;;;;;5064610;28;20060;-67
2023/10/26 09:00:16;;;;;;;71.82;68.22;;;;;;;;;;5065760;28;20122;-67
2023/10/26 09:02:41;;;;;;;78.60;74.55;;;;;;;;;;5064396;28;20140;-67
2023/10/26 09:05:08;;;;;;;72.78;69.10;;;;;;;;;;5064755;28;20037;-67
2023/10/26 09:07:34;;;;;;;71.80;68.22;;;;;;;;;;5066039;28;20363;-67
2023/10/26 09:10:00;;;;;;;73.95;70.22;;;;;;;;;;5068237;28;20037;-67
2023/10/26 09:12:26;;;;;;;73.43;69.72;;;;;;;;;;5064884;28;20028;-67
2023/10/26 09:15:06;;;;;;;70.82;67.30;;;;;;;;;;5066592;28;20158;-67
2023/10/26 09:17:32;;;;;;;63.43;60.27;;;;;;;;;;5063520;28;20052;-67
2023/10/26 09:19:58;;;;;;;68.82;65.30;;;;;;;;;;5065262;28;20357;-67
2023/10/26 09:22:40;;;;;;;61.70;58.60;;;;;;;;;;5063337;28;20162;-68
2023/10/26 09:25:10;;;;;;;61.13;58.08;;;;;;;;;;5065752;28;20648;-68
2023/10/26 09:27:36;;;;;;;58.17;55.25;;;;;;;;;;5068108;28;20036;-67
2023/10/26 09:30:03;;;;;;;60.88;57.83;;;;;;;;;;5066756;28;20597;-67
2023/10/26 09:32:36;;;;;;;64.38;61.17;;;;;;;;;;5063349;28;20029;-67
2023/10/26 09:35:03;;;;;;;60.28;57.25;;;;;;;;;;5066764;28;20024;-67
2023/10/26 09:37:29;;;;;;;66.63;63.17;;;;;;;;;;5064083;28;20032;-67
2023/10/26 09:39:56;;;;;;;75.22;71.50;;;;;;;;;;5069232;28;20531;-67
2023/10/26 09:42:22;;;;;;;72.85;69.22;;;;;;;;;;5058848;28;20174;-68
2023/10/26 09:44:47;;;;;;;74.80;71.07;;;;;;;;;;5065732;28;20170;-67
2023/10/26 09:47:15;;;;;;;70.30;66.80;;;;;;;;;;5065213;28;20053;-67
2023/10/26 09:49:40;;;;;;;72.25;68.60;;;;;;;;;;5065817;28;20335;-67
2023/10/26 09:52:06;;;;;;;72.68;69.03;;;;;;;;;;5063026;28;20089;-68
2023/10/26 09:54:35;;;;;;;82.30;78.15;;;;;;;;;;5065505;28;20047;-67
2023/10/26 09:57:17;;;;;;;72.85;69.20;;;;;;;;;;5061466;28;20133;-66
2023/10/26 09:59:42;;;;;;;68.80;65.35;;;;;;;;;;5049400;28;20024;-66
2023/10/26 10:02:18;;;;;;;75.10;71.32;;;;;;;;;;5063502;28;20051;-68
2023/10/26 10:04:44;;;;;;;59.45;56.45;;;;;;;;;;5064286;28;20028;-66
2023/10/26 10:07:18;;;;;;;69.47;66.00;;;;;;;;;;5063627;28;20028;-68
2023/10/26 10:10:11;;;;;;;52.95;50.25;;;;;;;;;;5065190;28;20110;-66
2023/10/26 10:12:38;;;;;;;57.80;54.88;;;;;;;;;;5066389;28;20045;-67
2023/10/26 10:15:06;;;;;;;56.65;53.80;;;;;;;;;;5068903;28;20037;-68
2023/10/26 10:17:44;;;;;;;47.53;45.10;;;;;;;;;;5064879;28;20076;-68
2023/10/26 10:20:16;;;;;;;47.67;45.28;;;;;;;;;;5061818;28;20504;-68
2023/10/26 10:22:48;;;;;;;41.95;39.80;;;;;;;;;;5062732;28;20036;-68
2023/10/26 10:25:16;;;;;;;65.07;61.80;;;;;;;;;;5067668;28;20458;-67
2023/10/26 10:28:02;;;;;;;49.60;47.10;;;;;;;;;;5066826;28;20044;-68
2023/10/26 10:30:29;;;;;;;60.63;57.55;;;;;;;;;;5062351;28;20036;-67
2023/10/26 10:32:56;;;;;;;44.70;42.35;;;;;;;;;;5049246;28;20373;-68
2023/10/26 10:35:21;;;;;;;50.97;48.40;;;;;;;;;;5062107;28;20336;-68
2023/10/26 10:38:18;;;;;;;61.95;58.80;;;;;;;;;;5062183;28;20032;-68
2023/10/26 10:40:57;;;;;;;57.28;54.38;;;;;;;;;;5064800;28;20041;-67
2023/10/26 10:43:32;;;;;;;68.03;64.60;;;;;;;;;;5067224;28;20101;-67
2023/10/26 10:46:16;;;;;;;41.00;38.92;;;;;;;;;;5064507;28;20029;-66
2023/10/26 10:48:57;;;;;;;42.28;40.13;;;;;;;;;;5065998;28;20036;-67
2023/10/26 10:51:33;;;;;;;46.20;43.80;;;;;;;;;;5064472;28;20028;-67
2023/10/26 10:54:00;;;;;;;45.28;42.97;;;;;;;;;;5066757;28;20456;-67
2023/10/26 10:56:26;;;;;;;63.78;60.58;;;;;;;;;;5065508;28;20128;-67
2023/10/26 10:58:52;;;;;;;71.22;67.68;;;;;;;;;;5067803;28;20103;-67
2023/10/26 11:01:21;;;;;;;71.97;68.35;;;;;;;;;;5067851;28;20042;-67
2023/10/26 11:03:48;;;;;;;65.50;62.22;;;;;;;;;;5069067;28;20036;-67
2023/10/26 11:06:18;;;;;;;50.75;48.17;;;;;;;;;;5068558;28;20038;-68
2023/10/26 11:08:44;;;;;;;49.25;46.75;;;;;;;;;;5069768;28;20040;-67
2023/10/26 11:11:26;;;;;;;60.05;57.00;;;;;;;;;;5071958;28;20308;-67
2023/10/26 11:14:08;;;;;;;64.65;61.40;;;;;;;;;;5069260;28;20034;-68
2023/10/26 11:16:34;;;;;;;73.07;69.40;;;;;;;;;;5068623;28;20039;-68
2023/10/26 11:19:00;;;;;;;56.92;54.03;;;;;;;;;;5065923;28;20512;-66
2023/10/26 11:21:26;;;;;;;44.13;41.92;;;;;;;;;;5066760;28;20056;-67
2023/10/26 11:23:51;;;;;;;45.95;43.65;;;;;;;;;;5070257;28;20024;-67
2023/10/26 11:26:16;;;;;;;63.92;60.67;;;;;;;;;;5069200;28;20044;-67
2023/10/26 11:28:42;;;;;;;52.60;49.90;;;;;;;;;;5071559;28;20028;-67
2023/10/26 11:31:07;;;;;;;44.22;42.03;;;;;;;;;;5068599;28;20143;-68
2023/10/26 11:33:33;;;;;;;68.03;64.63;;;;;;;;;;5067328;28;20119;-67
2023/10/26 11:35:59;;;;;;;46.25;43.85;;;;;;;;;;5069069;28;20082;-67
2023/10/26 11:38:26;;;;;;;46.25;43.90;;;;;;;;;;5067284;28;20450;-67
2023/10/26 11:40:52;;;;;;;50.70;48.13;;;;;;;;;;5072473;28;20032;-68
2023/10/26 11:43:30;;;;;;;52.45;49.78;;;;;;;;;;5067985;28;20037;-68
2023/10/26 11:45:56;;;;;;;63.40;60.20;;;;;;;;;;5065666;28;20047;-68
2023/10/26 11:48:29;;;;;;;56.45;53.60;;;;;;;;;;5063857;28;20040;-68
2023/10/26 11:50:55;;;;;;;59.63;56.63;;;;;;;;;;5067023;28;20044;-68
2023/10/26 11:53:22;;;;;;;64.30;61.10;;;;;;;;;;5065544;28;20036;-68
2023/10/26 11:55:48;;;;;;;65.93;62.63;;;;;;;;;;5066330;28;20124;-68
2023/10/26 11:58:14;;;;;;;69.72;65.93;;;;;;;;;;5064746;28;20029;-68
2023/10/26 12:00:39;;;;;;;64.43;61.22;;;;;;;;;;5068166;28;20067;-68
2023/10/26 12:03:05;;;;;;;55.17;52.40;;;;;;;;;;5065767;28;20032;-68
2023/10/26 12:05:30;;;;;;;48.88;46.38;;;;;;;;;;5066923;28;20024;-68
2023/10/26 12:07:55;;;;;;;43.90;41.65;;;;;;;;;;5062558;28;20024;-68
2023/10/26 12:10:22;;;;;;;42.80;40.60;;;;;;;;;;5063805;28;20454;-67
2023/10/26 12:12:51;;;;;;;50.78;48.17;;;;;;;;;;5065812;28;20063;-66
2023/10/26 12:15:17;;;;;;;39.42;37.40;;;;;;;;;;5068230;28;20353;-67
2023/10/26 12:17:43;;;;;;;37.17;35.28;;;;;;;;;;5066387;28;20040;-67
2023/10/26 12:20:08;;;;;;;37.20;35.28;;;;;;;;;;5067262;28;20473;-67
2023/10/26 12:22:34;;;;;;;40.05;37.97;;;;;;;;;;5063577;28;20040;-67
2023/10/26 12:25:04;;;;;;;42.33;40.15;;;;;;;;;;5065442;28;20760;-66
2023/10/26 12:27:30;;;;;;;39.58;37.38;;;;;;;;;;5064698;28;20454;-66
2023/10/26 12:29:55;;;;;;;39.33;37.28;;;;;;;;;;5065477;28;20233;-66
2023/10/26 12:32:20;;;;;;;41.83;39.67;;;;;;;;;;5063667;28;20028;-66
2023/10/26 12:34:46;;;;;;;47.25;44.85;;;;;;;;;;5065886;28;20023;-66
2023/10/26 12:37:11;;;;;;;46.88;44.35;;;;;;;;;;5064677;28;20140;-67
2023/10/26 12:39:36;;;;;;;47.92;45.45;;;;;;;;;;5065674;28;20048;-66
2023/10/26 12:42:02;;;;;;;52.58;49.90;;;;;;;;;;5067187;28;20074;-66
2023/10/26 12:44:27;;;;;;;42.10;39.95;;;;;;;;;;5064996;28;20059;-66
2023/10/26 12:46:53;;;;;;;41.97;39.78;;;;;;;;;;5066498;28;20029;-66
2023/10/26 12:49:21;;;;;;;41.03;38.88;;;;;;;;;;5064939;28;20047;-66
2023/10/26 12:51:47;;;;;;;41.63;39.35;;;;;;;;;;5066614;28;20028;-65
2023/10/26 12:54:12;;;;;;;43.30;41.08;;;;;;;;;;5064346;28;20366;-66
2023/10/26 12:56:37;;;;;;;41.92;39.60;;;;;;;;;;5066177;28;20109;-66
2023/10/26 12:59:03;;;;;;;44.00;41.70;;;;;;;;;;5069142;28;20273;-66
2023/10/26 13:01:28;;;;;;;48.17;45.67;;;;;;;;;;5062984;28;20117;-67
2023/10/26 13:03:54;;;;;;;43.03;40.80;;;;;;;;;;5067934;28;20032;-66
2023/10/26 13:06:19;;;;;;;43.70;41.47;;;;;;;;;;5066902;28;20135;-66
2023/10/26 13:08:45;;;;;;;54.95;52.17;;;;;;;;;;5063982;28;20491;-67
2023/10/26 13:11:12;;;;;;;40.88;38.78;;;;;;;;;;5070280;28;20083;-67
2023/10/26 13:13:38;;;;;;;50.22;47.60;;;;;;;;;;5061739;28;20096;-67
2023/10/26 13:16:08;;;;;;;53.90;51.15;;;;;;;;;;5067031;28;20436;-66
2023/10/26 13:18:34;;;;;;;53.38;50.60;;;;;;;;;;5065787;28;20036;-66
2023/10/26 13:20:59;;;;;;;51.65;48.97;;;;;;;;;;5061336;28;20614;-66
2023/10/26 13:23:25;;;;;;;52.03;49.38;;;;;;;;;;5063111;28;20068;-66
2023/10/26 13:25:51;;;;;;;54.03;51.17;;;;;;;;;;5063196;28;20058;-67
2023/10/26 13:28:16;;;;;;;54.22;51.45;;;;;;;;;;5071313;28;20051;-67
2023/10/26 13:30:41;;;;;;;55.85;52.95;;;;;;;;;;5064829;28;20040;-67
2023/10/26 13:33:07;;;;;;;53.53;50.65;;;;;;;;;;5062005;28;20027;-67
2023/10/26 13:35:32;;;;;;;55.70;52.55;;;;;;;;;;5067832;28;20515;-67
2023/10/26 13:37:57;;;;;;;53.33;50.55;;;;;;;;;;5063470;28;20037;-67
2023/10/26 13:40:23;;;;;;;56.60;53.67;;;;;;;;;;5063592;28;20036;-67
2023/10/26 13:42:49;;;;;;;58.58;55.60;;;;;;;;;;5065116;28;20116;-67
2023/10/26 13:45:15;;;;;;;58.80;55.78;;;;;;;;;;5060170;28;20531;-67
2023/10/26 13:47:40;;;;;;;59.40;56.22;;;;;;;;;;5061298;28;20040;-67
2023/10/26 13:50:06;;;;;;;58.80;55.78;;;;;;;;;;5065389;28;20039;-67
2023/10/26 13:52:31;;;;;;;72.25;68.60;;;;;;;;;;5061427;28;20028;-67
2023/10/26 13:54:57;;;;;;;69.28;65.78;;;;;;;;;;5061848;28;20039;-67
2023/10/26 13:57:22;;;;;;;68.90;65.40;;;;;;;;;;5063797;28;20116;-67
2023/10/26 13:59:47;;;;;;;74.20;70.45;;;;;;;;;;5062569;28;20028;-67
2023/10/26 14:02:13;;;;;;;73.60;69.85;;;;;;;;;;5062006;28;20462;-67
2023/10/26 14:04:38;;;;;;;66.68;63.22;;;;;;;;;;5061481;28;20036;-67
2023/10/26 14:07:04;;;;;;;67.20;63.85;;;;;;;;;;5064333;28;20054;-67
2023/10/26 14:09:32;;;;;;;63.72;60.47;;;;;;;;;;5060409;28;20113;-66
2023/10/26 14:12:01;;;;;;;73.43;69.72;;;;;;;;;;5070264;28;20334;-67